Time;durP1;ratioP1;P1;durP2;ratioP2;P2;SDS_P1;SDS_P2;PMS_P1;PMS_P2;Temp;Humidity;BMP_temperature;BMP_pressure;BME280_temperature;BME280_humidity;BME280_pressure;Samples;Min_cycle;Max_cycle;Signal;HPM_P1;HPM_P2
2021/12/12 00:01:13;;;;;;;23.88;14.25;;;;;;;-1.00;76.79;101717.06;4192074;28;20507;-88
2021/12/12 00:03:31;;;;;;;19.77;12.52;;;;;;;-1.12;76.12;101674.44;4176915;28;20057;-88
2021/12/12 00:05:37;;;;;;;22.67;13.80;;;;;;;-0.95;75.96;101695.31;4189078;28;20045;-87
2021/12/12 00:07:46;;;;;;;21.27;14.00;;;;;;;-1.01;76.56;101682.09;4195037;28;20133;-85
2021/12/12 00:09:56;;;;;;;20.42;13.18;;;;;;;-1.00;77.11;101684.75;4203818;28;20076;-86
2021/12/12 00:12:04;;;;;;;21.98;13.98;;;;;;;-0.91;76.77;101694.81;4178762;28;20041;-86
2021/12/12 00:14:13;;;;;;;27.98;15.60;;;;;;;-0.83;76.58;101701.44;4177544;28;20072;-87
2021/12/12 00:16:17;;;;;;;24.90;16.33;;;;;;;-0.76;77.90;101705.34;4176971;28;20045;-88
2021/12/12 00:18:29;;;;;;;26.92;16.83;;;;;;;-0.76;78.28;101688.41;4199631;28;20051;-87
2021/12/12 00:20:34;;;;;;;25.70;14.98;;;;;;;-0.55;77.22;101698.53;4181562;28;20045;-88
2021/12/12 00:22:38;;;;;;;23.88;15.48;;;;;;;-0.56;78.42;101701.84;4181872;28;20117;-88
2021/12/12 00:24:42;;;;;;;25.90;16.30;;;;;;;-0.57;78.16;101700.97;4182583;28;20089;-88
2021/12/12 00:26:47;;;;;;;29.30;17.05;;;;;;;-0.44;77.69;101713.03;4199042;28;20041;-87
2021/12/12 00:28:53;;;;;;;32.03;19.50;;;;;;;-0.52;78.05;101692.78;4183959;28;20081;-85
2021/12/12 00:31:00;;;;;;;31.25;17.95;;;;;;;-0.47;77.71;101688.91;4184280;28;20037;-85
2021/12/12 00:33:05;;;;;;;27.23;16.98;;;;;;;-0.39;77.45;101698.94;4183536;28;20041;-88
2021/12/12 00:35:12;;;;;;;30.13;17.15;;;;;;;-0.31;78.08;101721.66;4185801;28;20041;-88
2021/12/12 00:37:16;;;;;;;29.42;17.27;;;;;;;-0.32;78.30;101708.00;4182482;28;20045;-89
2021/12/12 00:39:24;;;;;;;29.08;16.67;;;;;;;-0.14;78.55;101720.44;4181144;28;20049;-88
2021/12/12 00:41:32;;;;;;;27.98;16.48;;;;;;;-0.24;77.74;101691.56;4199126;28;20048;-87
2021/12/12 00:43:37;;;;;;;32.30;18.52;;;;;;;-0.20;77.53;101691.03;4185170;28;20052;-88
2021/12/12 00:45:42;;;;;;;26.08;15.75;;;;;;;-0.05;77.31;101708.34;4181892;28;20045;-88
2021/12/12 00:47:47;;;;;;;25.05;15.40;;;;;;;-0.06;77.53;101721.88;4182812;28;20061;-89
2021/12/12 00:49:51;;;;;;;24.05;15.65;;;;;;;-0.11;77.07;101703.66;4183296;28;20049;-86
2021/12/12 00:51:54;;;;;;;33.10;17.13;;;;;;;-0.08;77.42;101713.22;4182464;28;20057;-88
2021/12/12 00:53:58;;;;;;;30.90;16.15;;;;;;;-0.15;77.26;101704.19;4181956;28;20049;-88
2021/12/12 00:56:01;;;;;;;25.17;15.57;;;;;;;-0.11;78.13;101708.75;4181410;28;20050;-88
2021/12/12 00:58:05;;;;;;;25.63;16.15;;;;;;;-0.19;77.65;101714.94;4182168;28;20116;-87
2021/12/12 01:00:14;;;;;;;24.10;14.73;;;;;;;-0.17;77.00;101717.63;4198439;28;20041;-88
2021/12/12 01:02:23;;;;;;;26.17;14.30;;;;;;;-0.37;77.76;101693.94;4180247;28;20624;-88
2021/12/12 01:04:30;;;;;;;24.20;15.05;;;;;;;-0.24;77.40;101722.25;4181462;28;20046;-87
2021/12/12 01:06:34;;;;;;;28.00;15.63;;;;;;;-0.31;77.61;101714.88;4200554;28;20064;-88
2021/12/12 01:08:38;;;;;;;28.48;16.48;;;;;;;-0.33;77.56;101720.66;4183481;28;20029;-86
2021/12/12 01:10:44;;;;;;;25.23;14.73;;;;;;;-0.28;76.81;101727.00;4185658;28;20040;-86
2021/12/12 01:12:48;;;;;;;28.35;15.90;;;;;;;-0.26;77.82;101728.03;4185718;28;20060;-88
2021/12/12 01:14:57;;;;;;;24.08;15.02;;;;;;;-0.27;77.13;101723.69;4175317;28;20034;-86
2021/12/12 01:17:05;;;;;;;26.85;14.38;;;;;;;-0.32;76.74;101707.09;4185434;28;20105;-87
2021/12/12 01:19:14;;;;;;;24.83;15.50;;;;;;;-0.46;76.66;101701.78;4183106;28;20064;-88
2021/12/12 01:21:22;;;;;;;25.52;15.02;;;;;;;-0.33;77.07;101718.97;4178297;28;20053;-88
2021/12/12 01:23:30;;;;;;;23.83;14.38;;;;;;;-0.40;77.34;101707.38;4160921;28;20501;-89
2021/12/12 01:25:42;;;;;;;23.60;15.35;;;;;;;-0.33;77.00;101726.66;4175414;28;20075;-89
2021/12/12 01:27:46;;;;;;;24.23;15.05;;;;;;;-0.27;77.59;101739.00;4188025;28;20056;-88
2021/12/12 01:29:50;;;;;;;25.25;15.85;;;;;;;-0.28;76.91;101729.56;4175491;28;20333;-88
2021/12/12 01:31:55;;;;;;;25.55;15.20;;;;;;;-0.34;76.56;101724.84;4180241;28;20049;-88
2021/12/12 01:34:08;;;;;;;;;;;;;;;-0.36;77.79;101737.50;4190980;28;20052;-87
2021/12/12 01:36:23;;;;;;;23.48;13.73;;;;;;;-0.52;76.71;101703.88;4184213;28;19936;-88
2021/12/12 01:40:50;;;;;;;25.30;14.05;;;;;;;-0.34;76.62;101716.31;4195159;28;20059;-88
2021/12/12 01:42:57;;;;;;;25.85;14.57;;;;;;;-0.19;76.20;101733.72;4195486;28;20072;-86
2021/12/12 01:45:07;;;;;;;26.13;16.65;;;;;;;-0.18;76.63;101744.84;4180101;28;20054;-88
2021/12/12 01:47:33;;;;;;;26.60;16.83;;;;;;;-0.25;76.74;101719.56;4179031;28;20049;-87
2021/12/12 01:49:48;;;;;;;27.33;16.25;;;;;;;-0.41;75.73;101703.06;4167549;28;20072;-86
2021/12/12 01:51:55;;;;;;;25.85;14.73;;;;;;;-0.34;76.16;101711.19;4189112;28;20064;-86
2021/12/12 01:54:02;;;;;;;28.30;16.42;;;;;;;-0.30;76.37;101714.09;4190273;28;20065;-87
2021/12/12 01:56:11;;;;;;;29.45;16.45;;;;;;;-0.27;75.71;101710.91;4174918;28;20045;-87
2021/12/12 01:58:18;;;;;;;29.20;17.45;;;;;;;-0.37;75.91;101705.06;4189234;28;20084;-88
2021/12/12 02:00:27;;;;;;;30.98;17.30;;;;;;;-0.39;75.73;101700.63;4188365;28;20068;-87
2021/12/12 02:02:33;;;;;;;29.98;17.02;;;;;;;-0.40;76.50;101698.81;4187635;28;20076;-86
2021/12/12 02:04:41;;;;;;;30.38;17.23;;;;;;;-0.23;75.70;101728.25;4189944;28;20128;-87
2021/12/12 02:06:45;;;;;;;30.10;16.75;;;;;;;-0.32;75.76;101719.84;4188655;28;20049;-87
2021/12/12 02:08:52;;;;;;;25.63;15.90;;;;;;;-0.27;75.22;101727.13;4190788;28;20045;-88
2021/12/12 02:10:58;;;;;;;24.83;14.35;;;;;;;-0.29;75.69;101728.66;4192759;28;20043;-86
2021/12/12 02:13:03;;;;;;;23.75;15.75;;;;;;;-0.45;75.83;101703.59;4193935;28;20112;-88
2021/12/12 02:15:09;;;;;;;27.50;16.77;;;;;;;-0.52;75.33;101686.00;4175616;28;20896;-88
2021/12/12 02:17:20;;;;;;;;;;;;;;;-0.31;75.23;101742.09;4174022;28;20042;-88
2021/12/12 02:19:31;;;;;;;29.85;18.15;;;;;;;-0.31;75.82;101729.31;4178675;28;19925;-88
2021/12/12 02:21:52;;;;;;;25.38;15.82;;;;;;;-0.31;75.77;101726.75;4177255;28;20042;-87
2021/12/12 02:24:35;;;;;;;29.02;15.90;;;;;;;-0.27;75.12;101727.13;4194738;28;20060;-87
2021/12/12 02:36:13;;;;;;;24.08;14.20;;;;;;;-0.48;75.47;101723.78;4184410;28;20064;-86
2021/12/12 02:38:21;;;;;;;24.45;13.77;;;;;;;-0.35;75.66;101735.88;4188072;28;20034;-87
2021/12/12 02:40:31;;;;;;;26.48;14.75;;;;;;;-0.26;75.73;101753.59;4184377;28;20033;-87
2021/12/12 02:42:34;;;;;;;23.10;13.95;;;;;;;-0.31;75.62;101742.09;4191971;28;20025;-87
2021/12/12 02:44:41;;;;;;;22.42;13.52;;;;;;;-0.24;75.16;101747.78;4187563;28;20049;-88
2021/12/12 02:46:45;;;;;;;20.88;13.48;;;;;;;-0.15;75.17;101756.97;4186532;28;20033;-87
2021/12/12 02:48:53;;;;;;;23.80;13.55;;;;;;;-0.27;74.64;101734.78;4186752;28;20037;-87
2021/12/12 02:50:59;;;;;;;23.40;13.15;;;;;;;-0.14;75.30;101745.97;4186918;28;20060;-87
2021/12/12 02:53:16;;;;;;;22.67;14.18;;;;;;;-0.11;74.77;101738.56;4187228;28;20041;-88
2021/12/12 02:55:23;;;;;;;22.23;13.90;;;;;;;-0.12;74.79;101737.63;4185986;28;20061;-87
2021/12/12 02:57:29;;;;;;;27.92;14.25;;;;;;;0.08;74.83;101751.09;4185754;28;20054;-87
2021/12/12 02:59:33;;;;;;;22.42;13.02;;;;;;;0.10;75.27;101764.88;4185109;28;20041;-89
2021/12/12 03:01:39;;;;;;;21.13;14.07;;;;;;;0.05;74.67;101755.97;4185055;28;20056;-87
2021/12/12 03:03:45;;;;;;;22.52;13.23;;;;;;;-0.02;74.81;101734.13;4188657;28;20045;-87
2021/12/12 03:05:49;;;;;;;23.48;14.43;;;;;;;0.19;74.55;101754.47;4183691;28;20084;-87
2021/12/12 03:07:53;;;;;;;22.98;14.63;;;;;;;-0.10;74.01;101705.44;4183560;28;20049;-86
2021/12/12 03:09:59;;;;;;;21.48;13.60;;;;;;;0.20;74.76;101758.81;4200342;28;20048;-87
2021/12/12 03:12:06;;;;;;;24.42;13.82;;;;;;;0.04;73.72;101738.84;4200671;28;20071;-87
2021/12/12 03:14:11;;;;;;;21.98;13.23;;;;;;;0.24;74.22;101773.63;4182487;28;20125;-88
2021/12/12 03:16:15;;;;;;;;;;;;;;;0.13;74.42;101780.44;4181864;28;20068;-88
2021/12/12 03:18:21;;;;;;;21.48;13.25;;;;;;;0.09;75.02;101764.00;4199403;28;20116;-87
2021/12/12 03:20:32;;;;;;;23.88;13.75;;;;;;;0.26;74.69;101778.06;4183962;28;20045;-88
2021/12/12 03:22:36;;;;;;;22.40;13.85;;;;;;;0.22;74.45;101776.06;4186070;28;20105;-88
2021/12/12 03:24:39;;;;;;;22.52;13.77;;;;;;;0.19;74.41;101765.59;4185501;28;20069;-88
2021/12/12 03:26:45;;;;;;;18.75;12.70;;;;;;;0.13;74.68;101758.34;4185184;28;20037;-88
2021/12/12 03:28:51;;;;;;;20.52;13.00;;;;;;;0.23;74.29;101777.81;4202620;28;20104;-88
2021/12/12 03:30:59;;;;;;;20.90;12.25;;;;;;;0.26;74.61;101788.28;4200494;28;20041;-88
2021/12/12 03:33:02;;;;;;;21.08;12.68;;;;;;;0.01;74.09;101749.72;4182069;28;20112;-88
2021/12/12 03:35:06;;;;;;;22.05;13.85;;;;;;;0.15;74.68;101777.25;4180539;28;20054;-86
2021/12/12 03:37:17;;;;;;;22.35;13.45;;;;;;;0.11;74.28;101765.00;4180506;28;20117;-87
2021/12/12 03:39:23;;;;;;;24.50;13.55;;;;;;;0.17;74.22;101772.25;4181009;28;20209;-88
2021/12/12 03:41:32;;;;;;;24.33;14.32;;;;;;;0.14;74.45;101787.34;4180967;28;20057;-87
2021/12/12 03:43:37;;;;;;;19.63;13.15;;;;;;;-0.04;74.50;101744.25;4193099;28;20048;-88
2021/12/12 03:45:42;;;;;;;20.15;12.95;;;;;;;0.05;74.47;101767.09;4181399;28;20042;-87
2021/12/12 03:47:50;;;;;;;20.23;12.80;;;;;;;0.10;74.70;101765.78;4181825;28;20282;-88
2021/12/12 03:49:54;;;;;;;22.42;13.90;;;;;;;0.04;74.13;101772.97;4190102;28;20044;-88
2021/12/12 03:51:58;;;;;;;18.25;12.55;;;;;;;0.16;74.46;101791.81;4179172;28;20048;-88
2021/12/12 03:54:01;;;;;;;24.10;13.98;;;;;;;0.13;74.50;101780.44;4199150;28;20033;-88
2021/12/12 03:56:07;;;;;;;20.13;13.50;;;;;;;0.19;75.01;101790.25;4181482;28;20073;-88
2021/12/12 03:58:11;;;;;;;18.40;11.85;;;;;;;0.15;74.81;101784.03;4177383;28;20149;-87
2021/12/12 04:00:19;;;;;;;20.05;13.13;;;;;;;0.02;74.41;101765.97;4178417;28;20148;-87
2021/12/12 04:02:23;;;;;;;20.77;13.25;;;;;;;0.09;74.35;101781.91;4181235;28;20428;-88
2021/12/12 04:04:32;;;;;;;19.98;13.50;;;;;;;0.24;73.91;101802.63;4180432;28;20481;-88
2021/12/12 04:06:35;;;;;;;22.17;13.18;;;;;;;0.15;74.48;101804.50;4186444;28;20048;-88
2021/12/12 04:08:46;;;;;;;22.38;13.52;;;;;;;0.09;74.18;101775.88;4179258;28;20092;-88
2021/12/12 04:10:50;;;;;;;24.02;13.55;;;;;;;-0.06;74.09;101770.47;4179682;28;20096;-88
2021/12/12 04:12:54;;;;;;;20.83;12.73;;;;;;;0.12;74.18;101792.34;4181832;28;20042;-87
2021/12/12 04:14:58;;;;;;;19.95;13.40;;;;;;;0.07;74.36;101785.09;4182406;28;20050;-86
2021/12/12 04:17:05;;;;;;;23.25;13.60;;;;;;;0.03;74.27;101777.94;4181099;28;20118;-88
2021/12/12 04:19:10;;;;;;;23.63;14.65;;;;;;;0.06;75.20;101775.63;4181474;28;20048;-87
2021/12/12 04:21:19;;;;;;;22.27;13.52;;;;;;;0.07;74.96;101774.88;4180067;28;20164;-87
2021/12/12 04:23:27;;;;;;;21.98;14.30;;;;;;;0.14;75.13;101797.59;4179739;28;20064;-87
2021/12/12 04:25:30;;;;;;;22.83;13.73;;;;;;;-0.10;74.78;101754.00;4180618;28;20279;-88
2021/12/12 04:27:35;;;;;;;19.60;13.18;;;;;;;0.15;74.01;101794.25;4179782;28;20046;-88
2021/12/12 04:29:40;;;;;;;;;;;;;;;-0.01;75.37;101782.84;4180741;28;20042;-90
2021/12/12 04:31:49;;;;;;;18.55;12.45;;;;;;;0.00;74.75;101788.84;4178217;28;19928;-87
2021/12/12 04:33:54;;;;;;;23.23;13.25;;;;;;;0.01;75.30;101785.50;4180867;28;20048;-88
2021/12/12 04:35:57;;;;;;;25.80;14.13;;;;;;;0.08;74.69;101792.88;4181390;28;20118;-87
2021/12/12 04:38:04;;;;;;;23.52;13.30;;;;;;;0.14;75.00;101789.91;4180754;28;20124;-89
2021/12/12 04:40:11;;;;;;;22.60;13.63;;;;;;;0.21;74.30;101794.72;4186177;28;20056;-88
2021/12/12 04:42:17;;;;;;;21.33;12.77;;;;;;;0.18;75.03;101786.84;4184150;28;20041;-87
2021/12/12 04:44:22;;;;;;;21.70;14.02;;;;;;;0.21;74.36;101781.94;4195464;28;20053;-88
2021/12/12 04:46:38;;;;;;;24.55;14.60;;;;;;;0.23;74.51;101776.94;4179960;28;20041;-87
2021/12/12 04:51:14;;;;;;;23.17;13.55;;;;;;;0.01;74.46;101726.72;4179147;28;20563;-87
2021/12/12 04:53:25;;;;;;;21.08;13.32;;;;;;;0.16;74.24;101757.66;4180934;28;20045;-88
2021/12/12 04:55:32;;;;;;;24.08;13.90;;;;;;;0.30;74.60;101789.44;4179920;28;20080;-88
2021/12/12 04:57:40;;;;;;;19.52;12.90;;;;;;;0.10;74.41;101744.41;4180216;28;20049;-88
2021/12/12 04:59:47;;;;;;;24.00;14.20;;;;;;;0.37;74.40;101783.16;4180206;28;20091;-88
2021/12/12 05:01:58;;;;;;;23.50;14.48;;;;;;;0.38;74.53;101792.56;4178625;28;20099;-87
2021/12/12 05:04:07;;;;;;;21.75;12.32;;;;;;;0.21;74.40;101774.28;4175585;28;20108;-88
2021/12/12 05:06:16;;;;;;;22.45;13.77;;;;;;;0.14;73.88;101759.22;4178627;28;20656;-89
2021/12/12 05:08:27;;;;;;;21.65;13.52;;;;;;;0.26;74.51;101762.72;4177924;28;20049;-89
2021/12/12 05:10:37;;;;;;;22.15;13.27;;;;;;;0.37;74.29;101790.81;4178542;28;20275;-88
2021/12/12 05:12:45;;;;;;;23.15;14.05;;;;;;;0.30;74.21;101764.75;4177358;28;20045;-87
2021/12/12 05:14:54;;;;;;;25.27;14.60;;;;;;;0.28;74.03;101761.19;4164184;28;20058;-88
2021/12/12 05:17:03;;;;;;;26.50;14.07;;;;;;;0.36;73.88;101774.56;4179175;28;20055;-88
2021/12/12 05:19:11;;;;;;;21.92;13.60;;;;;;;0.40;73.74;101783.38;4177302;28;20045;-86
2021/12/12 05:21:15;;;;;;;22.63;15.75;;;;;;;0.30;74.20;101769.84;4195047;28;20482;-87
2021/12/12 05:23:25;;;;;;;22.77;13.95;;;;;;;0.35;74.68;101777.88;4178545;28;20042;-88
2021/12/12 05:25:35;;;;;;;24.48;14.25;;;;;;;0.31;74.51;101787.00;4177393;28;20053;-87
2021/12/12 05:27:39;;;;;;;21.88;14.48;;;;;;;0.26;74.00;101788.28;4177319;28;20146;-87
2021/12/12 05:29:46;;;;;;;24.20;14.90;;;;;;;0.09;74.52;101758.88;4178286;28;20049;-85
2021/12/12 05:31:52;;;;;;;25.50;16.17;;;;;;;0.18;74.19;101789.38;4189791;28;20039;-88
2021/12/12 05:33:56;;;;;;;24.27;14.55;;;;;;;0.21;74.66;101788.75;4182921;28;20500;-86
2021/12/12 05:36:00;;;;;;;20.98;14.45;;;;;;;0.16;74.71;101778.13;4179822;28;20045;-88
2021/12/12 05:38:05;;;;;;;23.48;14.38;;;;;;;0.16;74.02;101765.34;4179381;28;20042;-88
2021/12/12 05:40:12;;;;;;;24.70;14.60;;;;;;;0.12;74.51;101759.13;4179037;28;20056;-87
2021/12/12 05:42:16;;;;;;;22.55;13.35;;;;;;;0.16;74.60;101766.25;4177412;28;20041;-88
2021/12/12 05:44:20;;;;;;;23.75;14.85;;;;;;;0.26;74.76;101793.41;4178512;28;20045;-87
2021/12/12 05:46:25;;;;;;;21.60;14.82;;;;;;;0.16;74.33;101757.66;4178435;28;20072;-88
2021/12/12 05:48:29;;;;;;;;;;;;;;;0.16;74.09;101776.47;4178473;28;20045;-88
2021/12/12 05:50:32;;;;;;;20.73;13.95;;;;;;;0.19;74.92;101780.94;4177846;28;19959;-87
2021/12/12 05:52:38;;;;;;;20.98;13.73;;;;;;;0.26;74.47;101778.06;4178470;28;20060;-88
2021/12/12 05:54:42;;;;;;;22.70;14.80;;;;;;;0.13;74.30;101763.47;4177053;28;20053;-88
2021/12/12 05:56:48;;;;;;;26.15;14.80;;;;;;;0.27;74.15;101779.84;4197184;28;20040;-88
2021/12/12 05:58:52;;;;;;;21.60;13.45;;;;;;;0.10;74.63;101744.41;4178929;28;20068;-88
2021/12/12 06:00:59;;;;;;;23.77;14.13;;;;;;;0.37;74.23;101785.69;4175373;28;20051;-88
2021/12/12 06:03:07;;;;;;;22.27;14.68;;;;;;;0.30;74.50;101774.97;4177822;28;20068;-87
2021/12/12 06:05:11;;;;;;;25.85;14.57;;;;;;;0.35;75.01;101775.31;4167791;28;20064;-87
2021/12/12 06:07:17;;;;;;;23.65;13.60;;;;;;;0.46;74.80;101778.72;4182654;28;20041;-87
2021/12/12 06:09:22;;;;;;;21.65;13.77;;;;;;;0.45;74.24;101775.28;4179068;28;20080;-86
2021/12/12 06:11:27;;;;;;;24.30;14.38;;;;;;;0.41;74.34;101769.78;4179418;28;20038;-87
2021/12/12 06:13:33;;;;;;;25.05;14.68;;;;;;;0.57;75.12;101775.31;4179406;28;20068;-87
2021/12/12 06:15:37;;;;;;;25.27;13.57;;;;;;;0.56;74.53;101770.97;4195370;28;20049;-87
2021/12/12 06:17:42;;;;;;;26.60;16.30;;;;;;;0.58;74.53;101761.72;4196080;28;20045;-86
2021/12/12 06:19:47;;;;;;;26.02;13.57;;;;;;;0.59;74.24;101760.97;4195111;28;20040;-89
2021/12/12 06:21:51;;;;;;;;;;;;;;;0.56;74.50;101781.19;4179911;28;20049;-87
2021/12/12 06:23:55;;;;;;;24.27;15.25;;;;;;;0.49;74.74;101751.69;4208864;28;19940;-87
2021/12/12 06:25:58;;;;;;;21.95;13.35;;;;;;;0.47;74.64;101740.47;4180568;28;20033;-87
2021/12/12 06:28:02;;;;;;;22.88;13.65;;;;;;;0.68;74.38;101763.31;4184244;28;20033;-89
2021/12/12 06:30:11;;;;;;;27.45;15.07;;;;;;;0.82;74.46;101777.16;4184213;28;20034;-87
2021/12/12 06:32:14;;;;;;;25.40;14.55;;;;;;;0.75;74.60;101750.22;4196236;28;20121;-89
2021/12/12 06:34:19;;;;;;;24.52;14.35;;;;;;;0.69;74.66;101737.84;4182088;28;20032;-87
2021/12/12 06:36:22;;;;;;;23.58;14.38;;;;;;;0.83;74.72;101766.13;4200874;28;20071;-87
2021/12/12 06:38:27;;;;;;;20.42;12.80;;;;;;;0.96;74.83;101766.25;4184371;28;20092;-87
2021/12/12 06:40:30;;;;;;;22.90;13.50;;;;;;;0.91;74.86;101762.47;4196371;28;20090;-86
2021/12/12 06:42:34;;;;;;;22.20;13.82;;;;;;;1.03;75.03;101778.75;4183310;28;20025;-87
2021/12/12 06:44:39;;;;;;;22.27;14.83;;;;;;;1.10;74.65;101774.09;4187889;28;20021;-88
2021/12/12 06:46:45;;;;;;;24.77;14.55;;;;;;;0.94;74.69;101729.41;4182308;28;20300;-85
2021/12/12 06:48:49;;;;;;;21.90;13.95;;;;;;;1.09;74.74;101737.31;4179286;28;20029;-86
2021/12/12 06:50:56;;;;;;;21.38;13.95;;;;;;;1.16;74.38;101744.69;4181100;28;20053;-87
2021/12/12 06:53:01;;;;;;;23.27;13.80;;;;;;;1.31;75.03;101754.25;4182925;28;20048;-87
2021/12/12 06:55:06;;;;;;;25.67;13.95;;;;;;;1.35;74.92;101759.72;4199201;28;20083;-88
2021/12/12 06:57:13;;;;;;;26.20;15.13;;;;;;;1.22;74.76;101721.19;4190759;28;20059;-88
2021/12/12 06:59:16;;;;;;;23.85;13.23;;;;;;;1.34;74.87;101745.16;4195026;28;20063;-88
2021/12/12 07:01:23;;;;;;;23.67;14.60;;;;;;;1.34;74.90;101750.28;4177059;28;20046;-87
2021/12/12 07:03:30;;;;;;;27.10;14.75;;;;;;;1.45;75.13;101757.84;4192826;28;20033;-87
2021/12/12 07:05:35;;;;;;;25.45;14.35;;;;;;;1.50;74.42;101753.91;4179168;28;20053;-87
2021/12/12 07:07:38;;;;;;;27.45;15.80;;;;;;;1.60;74.64;101758.91;4176476;28;20032;-86
2021/12/12 07:09:43;;;;;;;22.35;14.13;;;;;;;1.37;74.72;101714.63;4186172;28;20040;-87
2021/12/12 07:11:46;;;;;;;;;;;;;;;1.54;74.61;101768.75;4166969;28;20073;-87
2021/12/12 07:13:51;;;;;;;22.98;13.25;;;;;;;1.54;74.52;101753.38;4198633;28;20391;-86
2021/12/12 07:15:57;;;;;;;25.63;15.77;;;;;;;1.63;74.18;101758.25;4180488;28;20043;-86
2021/12/12 07:18:07;;;;;;;23.42;14.55;;;;;;;1.64;74.18;101755.78;4181308;28;20049;-86
2021/12/12 07:20:14;;;;;;;23.70;14.68;;;;;;;1.86;74.40;101773.59;4180727;28;20045;-86
2021/12/12 07:22:17;;;;;;;21.90;14.18;;;;;;;1.73;73.52;101732.50;4191516;28;20021;-86
2021/12/12 07:24:23;;;;;;;21.92;14.40;;;;;;;1.93;73.72;101754.41;4182202;28;20053;-87
2021/12/12 07:26:27;;;;;;;22.08;14.20;;;;;;;1.83;73.65;101726.34;4183537;28;20041;-87
2021/12/12 07:28:31;;;;;;;20.80;13.43;;;;;;;1.93;73.42;101739.03;4183327;28;20101;-87
2021/12/12 07:30:36;;;;;;;22.42;14.52;;;;;;;2.07;73.40;101757.91;4183218;28;20099;-87
2021/12/12 07:32:40;;;;;;;25.20;15.23;;;;;;;2.08;73.62;101763.16;4184553;28;20117;-87
2021/12/12 07:34:45;;;;;;;21.58;13.80;;;;;;;2.21;73.65;101762.34;4201639;28;20037;-86
2021/12/12 07:36:53;;;;;;;;;;;;;;;2.13;73.33;101757.47;4201732;28;20041;-87
2021/12/12 07:38:59;;;;;;;22.38;13.93;;;;;;;2.19;73.37;101757.88;4186700;28;19905;-86
2021/12/12 07:41:04;;;;;;;19.15;13.40;;;;;;;2.31;73.33;101750.13;4182861;28;20080;-88
2021/12/12 07:43:08;;;;;;;21.42;13.23;;;;;;;2.40;73.30;101743.06;4186190;28;20056;-87
2021/12/12 07:45:11;;;;;;;21.42;13.10;;;;;;;2.46;73.22;101732.34;4184360;28;20045;-88
2021/12/12 07:47:17;;;;;;;21.75;13.40;;;;;;;2.53;72.43;101744.81;4189603;28;20116;-87
2021/12/12 07:49:21;;;;;;;25.52;14.48;;;;;;;2.51;72.77;101726.72;4180586;28;20063;-87
2021/12/12 07:51:26;;;;;;;21.65;14.50;;;;;;;2.61;72.37;101731.69;4177908;28;20025;-87
2021/12/12 07:53:36;;;;;;;23.73;14.40;;;;;;;2.51;72.32;101721.59;4185313;28;20056;-87
2021/12/12 07:55:41;;;;;;;21.75;14.60;;;;;;;2.66;72.78;101732.00;4182900;28;20712;-87
2021/12/12 07:57:44;;;;;;;26.75;14.55;;;;;;;2.72;72.16;101742.66;4183212;28;20038;-86
2021/12/12 07:59:48;;;;;;;26.80;14.27;;;;;;;2.67;72.09;101712.34;4178959;28;20042;-88
2021/12/12 08:01:53;;;;;;;22.02;12.80;;;;;;;2.74;72.14;101717.97;4197689;28;20052;-87
2021/12/12 08:03:57;;;;;;;;;;;;;;;2.73;71.98;101728.13;4180866;28;20074;-85
2021/12/12 08:06:05;;;;;;;22.65;14.63;;;;;;;2.79;72.52;101723.44;4197481;28;19963;-85
2021/12/12 08:08:11;;;;;;;25.60;15.20;;;;;;;2.77;71.44;101700.22;4179406;28;20084;-85
2021/12/12 08:10:18;;;;;;;25.02;14.02;;;;;;;2.96;72.29;101730.56;4180093;28;20060;-86
2021/12/12 08:12:25;;;;;;;27.90;15.93;;;;;;;2.90;72.01;101722.44;4197148;28;20068;-81
2021/12/12 08:14:32;;;;;;;24.80;15.35;;;;;;;3.03;71.81;101719.00;4193978;28;20451;-82
2021/12/12 08:16:36;;;;;;;22.23;14.13;;;;;;;3.11;72.18;101728.09;4195289;28;20048;-79
2021/12/12 08:18:40;;;;;;;22.42;14.23;;;;;;;3.12;71.28;101731.56;4178137;28;20049;-78
2021/12/12 08:20:45;;;;;;;26.33;14.43;;;;;;;3.18;71.73;101744.78;4173216;28;20568;-79
2021/12/12 08:22:49;;;;;;;23.48;14.80;;;;;;;3.27;71.44;101741.94;4193928;28;20071;-81
2021/12/12 08:24:52;;;;;;;19.33;13.30;;;;;;;3.28;71.19;101724.03;4186404;28;20169;-84
2021/12/12 08:26:57;;;;;;;21.05;12.98;;;;;;;3.41;70.75;101728.28;4186479;28;20072;-84
2021/12/12 08:29:00;;;;;;;;;;;;;;;3.41;70.28;101740.25;4202907;28;20037;-83
2021/12/12 08:31:05;;;;;;;22.38;12.57;;;;;;;3.41;70.45;101727.41;4184954;28;19905;-83
2021/12/12 08:33:09;;;;;;;20.98;13.98;;;;;;;3.52;70.10;101748.63;4185772;28;20061;-83
2021/12/12 08:35:15;;;;;;;21.25;12.75;;;;;;;3.41;70.11;101727.41;4183982;28;20037;-83
2021/12/12 08:37:18;;;;;;;20.88;13.05;;;;;;;3.52;70.58;101721.25;4184776;28;20027;-83
2021/12/12 08:39:31;;;;;;;18.33;12.77;;;;;;;3.67;69.63;101747.06;4186064;28;20088;-86
2021/12/12 08:41:35;;;;;;;19.25;12.50;;;;;;;3.64;70.19;101739.16;4180156;28;20108;-85
2021/12/12 08:43:43;;;;;;;22.60;12.95;;;;;;;3.77;70.30;101754.53;4184864;28;20117;-85
2021/12/12 08:45:50;;;;;;;20.20;13.70;;;;;;;3.73;70.00;101725.97;4181986;28;20041;-86
2021/12/12 08:47:54;;;;;;;22.52;13.25;;;;;;;3.77;69.97;101733.97;4187556;28;20048;-86
2021/12/12 08:49:58;;;;;;;20.33;13.80;;;;;;;3.81;69.91;101730.81;4181433;28;20045;-88
2021/12/12 08:52:17;;;;;;;21.50;13.50;;;;;;;3.87;69.01;101716.53;4187802;28;20061;-86
2021/12/12 08:54:28;;;;;;;22.27;14.25;;;;;;;3.86;68.91;101714.78;4165416;28;20117;-85
2021/12/12 08:56:43;;;;;;;16.60;12.30;;;;;;;3.96;69.17;101727.41;4178742;28;20072;-85
2021/12/12 08:58:48;;;;;;;22.38;13.27;;;;;;;3.95;69.55;101710.19;4176076;28;20101;-85
2021/12/12 09:00:55;;;;;;;27.13;14.25;;;;;;;3.94;68.89;101710.97;4175698;28;20076;-84
2021/12/12 09:03:00;;;;;;;22.05;12.73;;;;;;;4.12;69.00;101719.81;4180120;28;20046;-84
2021/12/12 09:05:22;;;;;;;20.75;12.45;;;;;;;4.11;68.78;101737.75;4175052;28;20049;-84
2021/12/12 09:07:58;;;;;;;21.77;12.60;;;;;;;4.07;69.27;101726.34;4178539;28;20137;-84
2021/12/12 09:10:08;;;;;;;17.55;12.32;;;;;;;4.11;69.57;101723.19;4179760;28;20042;-84
2021/12/12 09:12:16;;;;;;;20.05;12.20;;;;;;;4.02;69.05;101714.91;4179206;28;20033;-83
2021/12/12 09:14:31;;;;;;;22.02;12.45;;;;;;;4.06;69.32;101708.25;4182300;28;20048;-86
2021/12/12 09:16:40;;;;;;;21.80;12.82;;;;;;;4.00;69.21;101711.31;4174642;28;20049;-87
2021/12/12 09:18:48;;;;;;;21.65;13.10;;;;;;;4.11;69.25;101738.63;4186539;28;20063;-84
2021/12/12 09:21:02;;;;;;;18.63;12.43;;;;;;;4.09;69.24;101722.22;4195803;28;20071;-85
2021/12/12 09:23:08;;;;;;;18.75;12.20;;;;;;;3.89;69.54;101700.41;4184230;28;20052;-86
2021/12/12 09:25:22;;;;;;;18.98;11.43;;;;;;;4.05;69.65;101714.22;4179148;28;20034;-87
2021/12/12 09:27:30;;;;;;;24.75;13.25;;;;;;;4.11;69.66;101728.31;4197968;28;20083;-88
2021/12/12 09:29:41;;;;;;;19.95;11.85;;;;;;;4.02;69.71;101717.47;4192993;28;20047;-87
2021/12/12 09:31:53;;;;;;;22.38;12.13;;;;;;;3.98;69.30;101707.78;4179019;28;20060;-85
2021/12/12 09:34:00;;;;;;;20.23;11.77;;;;;;;4.12;69.76;101722.38;4193046;28;20047;-86
2021/12/12 09:36:07;;;;;;;20.00;12.65;;;;;;;4.13;69.82;101737.03;4172734;28;20099;-85
2021/12/12 09:38:14;;;;;;;19.92;11.82;;;;;;;4.14;69.61;101741.38;4174456;28;20045;-84
2021/12/12 09:40:29;;;;;;;16.13;11.07;;;;;;;4.18;69.78;101735.63;4167346;28;20041;-84
2021/12/12 09:43:15;;;;;;;20.50;11.63;;;;;;;4.05;69.74;101720.22;4189040;28;20037;-85
2021/12/12 09:45:42;;;;;;;25.67;11.85;;;;;;;4.13;69.75;101739.63;4160147;28;21262;-85
2021/12/12 09:51:14;;;;;;;20.85;12.07;;;;;;;4.13;69.96;101726.75;4173390;28;20049;-86
2021/12/12 09:53:40;;;;;;;22.77;12.43;;;;;;;4.23;69.99;101719.56;4175829;28;20041;-86
2021/12/12 09:55:49;;;;;;;17.98;11.32;;;;;;;4.30;69.74;101737.16;4180216;28;20052;-86
2021/12/12 09:57:56;;;;;;;21.70;11.88;;;;;;;4.28;69.63;101728.44;4206752;28;20404;-87
2021/12/12 10:00:11;;;;;;;19.40;11.45;;;;;;;4.35;70.06;101746.03;4182538;28;20072;-86
2021/12/12 10:02:26;;;;;;;20.50;11.48;;;;;;;4.26;70.17;101709.47;4177616;28;20117;-86